Time;durP1;ratioP1;P1;durP2;ratioP2;P2;SDS_P1;SDS_P2;PMS_P1;PMS_P2;Temp;Humidity;BMP_temperature;BMP_pressure;BME280_temperature;BME280_humidity;BME280_pressure;Samples;Min_cycle;Max_cycle;Signal;HPM_P1;HPM_P2
2022/11/03 15:49:32;;;;;;;;;;;8.60;99.90;;;;;;5110343;27;19924;-96
2022/11/03 15:51:57;;;;;;;;;;;9.60;99.90;;;;;;5088171;28;19913;-96
2022/11/03 15:54:27;;;;;;;;;;;9.70;99.90;;;;;;5079765;28;19967;-96
2022/11/03 15:56:54;;;;;;;;;;;9.80;99.90;;;;;;5099439;28;19977;-96
2022/11/03 15:59:19;;;;;;;;;;;9.80;99.90;;;;;;5103236;28;20352;-96
2022/11/03 16:01:48;;;;;;;;;;;9.80;99.90;;;;;;5090735;28;19921;-95
2022/11/03 16:04:16;;;;;;;;;;;9.80;99.90;;;;;;5099587;28;20305;-96
2022/11/03 16:06:42;;;;;;;;;;;9.80;99.90;;;;;;5095647;28;19966;-95
2022/11/03 16:09:08;;;;;;;;;;;9.80;99.90;;;;;;5101320;28;19912;-96
2022/11/03 16:11:35;;;;;;;;;;;9.80;99.90;;;;;;5106528;28;19924;-96
2022/11/03 16:14:05;;;;;;;;;;;9.80;99.90;;;;;;5104748;28;19913;-96
2022/11/03 16:16:31;;;;;;;;;;;9.80;99.90;;;;;;5111696;28;19901;-96
2022/11/03 16:21:53;;;;;;;;;;;9.80;99.90;;;;;;5879236;23;19947;-95
2022/11/03 16:27:21;;;;;;;;;;;9.80;99.90;;;;;;5747878;23;19911;-96
2022/11/03 16:30:12;;;;;;;;;;;9.80;99.90;;;;;;5085037;28;19996;-95
2022/11/03 16:32:38;;;;;;;;;;;9.80;99.90;;;;;;5034756;28;19972;-96
2022/11/03 16:41:01;;;;;;;;;;;9.80;99.90;;;;;;5071480;28;19900;-96
2022/11/03 16:46:07;;;;;;;;;;;9.70;99.90;;;;;;5657910;22;19926;-96
2022/11/03 19:02:51;;;;;;;;;;;9.00;99.90;;;;;;5094720;22;20068;-93
2022/11/03 19:05:17;;;;;;;;;;;9.00;99.90;;;;;;5007074;28;19980;-96
2022/11/03 19:10:29;;;;;;;;;;;9.00;99.90;;;;;;5053905;28;19921;-94
2022/11/03 19:12:55;;;;;;;;;;;9.00;99.90;;;;;;5040030;28;19913;-94
2022/11/03 19:15:22;;;;;;;;;;;9.00;99.90;;;;;;5030756;28;19914;-94
2022/11/03 19:17:53;;;;;;;;;;;8.90;99.90;;;;;;5020539;28;19948;-94
2022/11/03 19:20:19;;;;;;;;;;;8.90;99.90;;;;;;5018619;28;19948;-94
2022/11/03 19:22:45;;;;;;;;;;;8.90;99.90;;;;;;5018845;28;19917;-93
2022/11/03 19:25:10;;;;;;;;;;;8.90;99.90;;;;;;5019119;28;19916;-94
2022/11/03 19:27:38;;;;;;;;;;;8.90;99.90;;;;;;5016914;28;19916;-94
2022/11/03 19:30:04;;;;;;;;;;;8.80;99.90;;;;;;5021657;28;19945;-94
2022/11/03 19:32:32;;;;;;;;;;;8.80;99.90;;;;;;5035757;28;19913;-95
2022/11/03 19:35:00;;;;;;;;;;;8.80;99.90;;;;;;5035478;28;20357;-94
2022/11/03 19:37:26;;;;;;;;;;;8.70;99.90;;;;;;5035926;28;19935;-94
2022/11/03 19:39:51;;;;;;;;;;;8.70;99.90;;;;;;5035836;28;19995;-94
2022/11/03 19:42:27;;;;;;;;;;;8.70;99.90;;;;;;5036117;28;19916;-94
2022/11/03 19:44:53;;;;;;;;;;;8.60;99.90;;;;;;5035531;28;20136;-93
2022/11/03 19:47:19;;;;;;;;;;;8.50;99.90;;;;;;5014705;28;20457;-94
2022/11/03 19:49:49;;;;;;;;;;;8.50;99.90;;;;;;5030929;28;19942;-96
2022/11/03 19:52:15;;;;;;;;;;;8.50;99.90;;;;;;5155657;23;19928;-96
2022/11/03 19:54:42;;;;;;;;;;;8.40;99.90;;;;;;4982461;28;19961;-96
2022/11/03 19:57:12;;;;;;;;;;;8.40;99.90;;;;;;4980079;28;19989;-95
2022/11/03 19:59:39;;;;;;;;;;;8.40;99.90;;;;;;5011759;28;19914;-96
2022/11/03 23:38:41;;;;;;;;;;;5.70;99.90;;;;;;5064957;28;19975;-96
